Time;durP1;ratioP1;P1;durP2;ratioP2;P2;SDS_P1;SDS_P2;PMS_P1;PMS_P2;Temp;Humidity;BMP_temperature;BMP_pressure;BME280_temperature;BME280_humidity;BME280_pressure;Samples;Min_cycle;Max_cycle;Signal;HPM_P1;HPM_P2
2022/04/22 00:00:00;;;;;;;;;;;11.50;89.60;;;;;;5044366;28;19966;-48
2022/04/22 00:02:25;;;;;;;;;;;11.60;89.50;;;;;;5051403;28;20116;-51
2022/04/22 00:04:51;;;;;;;;;;;11.50;89.80;;;;;;5050312;28;19920;-48
2022/04/22 00:07:16;;;;;;;;;;;11.50;89.90;;;;;;5049645;28;19917;-48
2022/04/22 00:09:42;;;;;;;;;;;11.50;90.00;;;;;;5050331;28;20305;-49
2022/04/22 00:12:08;;;;;;;;;;;11.40;89.70;;;;;;5036733;28;19917;-48
2022/04/22 00:14:34;;;;;;;;;;;11.40;90.00;;;;;;5031521;28;19921;-49
2022/04/22 00:17:00;;;;;;;;;;;11.40;90.00;;;;;;5034464;28;19971;-48
2022/04/22 00:19:26;;;;;;;;;;;11.40;90.20;;;;;;5051779;28;19920;-49
2022/04/22 00:21:53;;;;;;;;;;;11.40;90.40;;;;;;5046572;28;19917;-49
2022/04/22 00:24:19;;;;;;;;;;;11.40;90.20;;;;;;5030816;28;19917;-49
2022/04/22 00:26:44;;;;;;;;;;;11.30;90.30;;;;;;5032719;28;19916;-49
2022/04/22 00:29:11;;;;;;;;;;;11.30;90.40;;;;;;5036238;28;20084;-51
2022/04/22 00:31:36;;;;;;;;;;;11.30;90.40;;;;;;5046192;28;19947;-49
2022/04/22 00:34:01;;;;;;;;;;;11.20;90.50;;;;;;5051231;28;19924;-50
2022/04/22 00:36:27;;;;;;;;;;;11.20;90.60;;;;;;5049645;28;19916;-49
2022/04/22 00:38:52;;;;;;;;;;;11.20;90.60;;;;;;5048575;28;20305;-51
2022/04/22 00:41:18;;;;;;;;;;;11.10;90.70;;;;;;5048484;28;19916;-52
2022/04/22 00:43:45;;;;;;;;;;;11.10;90.90;;;;;;5050496;28;19981;-51
2022/04/22 00:46:11;;;;;;;;;;;11.10;90.90;;;;;;5049707;28;19924;-50
2022/04/22 00:48:37;;;;;;;;;;;11.10;91.10;;;;;;5042505;28;20343;-52
2022/04/22 00:51:06;;;;;;;;;;;11.10;91.10;;;;;;5034776;28;19917;-50
2022/04/22 00:53:35;;;;;;;;;;;11.00;91.20;;;;;;5049611;28;20445;-49
2022/04/22 00:56:04;;;;;;;;;;;11.00;91.40;;;;;;5049487;28;19924;-49
2022/04/22 00:58:30;;;;;;;;;;;11.00;91.40;;;;;;5048130;28;19990;-50
2022/04/22 01:00:55;;;;;;;;;;;11.00;91.40;;;;;;5047305;28;20373;-49
2022/04/22 01:03:22;;;;;;;;;;;11.00;91.50;;;;;;5038586;28;19924;-49
2022/04/22 01:11:17;;;;;;;;;;;10.90;91.90;;;;;;5044877;28;19927;-49
2022/04/22 01:13:43;;;;;;;;;;;10.90;92.00;;;;;;5044247;28;19916;-51
2022/04/22 01:16:09;;;;;;;;;;;10.80;92.10;;;;;;5048300;28;19924;-50
2022/04/22 01:18:35;;;;;;;;;;;10.80;92.20;;;;;;5050308;28;19928;-50
2022/04/22 01:21:01;;;;;;;;;;;10.80;92.30;;;;;;5048558;28;19917;-53
2022/04/22 01:23:27;;;;;;;;;;;10.80;92.50;;;;;;5050265;28;19920;-49
2022/04/22 01:25:53;;;;;;;;;;;10.80;92.40;;;;;;5046060;28;20266;-53
2022/04/22 01:28:19;;;;;;;;;;;10.70;92.40;;;;;;5037814;28;19971;-54
2022/04/22 01:30:45;;;;;;;;;;;10.70;92.60;;;;;;5050356;28;19924;-52
2022/04/22 01:33:10;;;;;;;;;;;10.70;92.80;;;;;;5045979;28;19917;-49
2022/04/22 01:35:36;;;;;;;;;;;10.60;92.70;;;;;;5031080;28;19948;-51
2022/04/22 01:38:01;;;;;;;;;;;10.50;92.80;;;;;;5030471;28;19928;-52
2022/04/22 01:40:27;;;;;;;;;;;10.60;93.00;;;;;;5030525;28;19917;-53
2022/04/22 01:42:53;;;;;;;;;;;10.50;93.30;;;;;;5038643;28;19921;-51
2022/04/22 01:45:19;;;;;;;;;;;10.50;93.10;;;;;;5050099;28;19916;-51
2022/04/22 01:47:44;;;;;;;;;;;10.50;93.30;;;;;;5045843;28;19943;-52
2022/04/22 01:50:10;;;;;;;;;;;10.50;93.50;;;;;;5030800;28;19962;-52
2022/04/22 01:52:40;;;;;;;;;;;10.50;93.40;;;;;;5033846;28;19924;-52
2022/04/22 01:55:06;;;;;;;;;;;10.50;93.40;;;;;;5048783;28;19917;-53
2022/04/22 01:57:32;;;;;;;;;;;10.40;93.40;;;;;;5047264;28;19927;-53
2022/04/22 01:59:59;;;;;;;;;;;10.40;93.50;;;;;;5038194;28;19960;-50
2022/04/22 02:02:24;;;;;;;;;;;10.40;93.70;;;;;;5050046;28;19916;-53
2022/04/22 02:04:50;;;;;;;;;;;10.40;93.80;;;;;;5052994;28;19924;-50
2022/04/22 02:07:15;;;;;;;;;;;10.40;94.10;;;;;;5047733;28;20492;-53
2022/04/22 02:09:41;;;;;;;;;;;10.40;94.00;;;;;;5036259;28;20035;-52
2022/04/22 02:12:09;;;;;;;;;;;10.40;94.20;;;;;;5040083;28;19921;-52
2022/04/22 02:14:35;;;;;;;;;;;10.40;94.20;;;;;;5055384;28;19927;-51
2022/04/22 02:17:00;;;;;;;;;;;10.30;94.30;;;;;;5054677;28;19920;-53
2022/04/22 02:19:26;;;;;;;;;;;10.30;94.00;;;;;;5049718;28;20389;-53
2022/04/22 02:21:51;;;;;;;;;;;10.30;93.90;;;;;;5052818;28;19923;-50
2022/04/22 02:24:17;;;;;;;;;;;10.20;94.10;;;;;;5055641;28;19978;-51
2022/04/22 02:29:26;;;;;;;;;;;10.10;94.00;;;;;;5055719;28;19920;-53
2022/04/22 02:31:53;;;;;;;;;;;10.10;94.30;;;;;;5044501;28;19917;-52
2022/04/22 02:34:19;;;;;;;;;;;10.00;94.40;;;;;;5037039;28;20310;-51
2022/04/22 02:36:45;;;;;;;;;;;10.00;94.50;;;;;;5052630;28;19916;-52
2022/04/22 02:39:10;;;;;;;;;;;10.00;94.60;;;;;;5054035;28;19938;-52
2022/04/22 02:47:04;;;;;;;;;;;9.90;95.10;;;;;;5036718;28;19917;-52
2022/04/22 02:49:29;;;;;;;;;;;9.90;95.00;;;;;;5036839;28;19936;-51
2022/04/22 02:51:55;;;;;;;;;;;9.90;95.10;;;;;;5037207;28;19916;-54
2022/04/22 02:54:20;;;;;;;;;;;9.90;95.20;;;;;;5035262;28;20343;-53
2022/04/22 02:56:47;;;;;;;;;;;9.90;95.10;;;;;;5049191;28;20011;-50
2022/04/22 02:59:12;;;;;;;;;;;9.80;95.10;;;;;;5052618;28;21130;-50
2022/04/22 03:01:38;;;;;;;;;;;9.80;95.10;;;;;;5042716;28;20386;-52
2022/04/22 03:04:04;;;;;;;;;;;9.80;95.20;;;;;;5053269;28;19928;-50
2022/04/22 03:06:29;;;;;;;;;;;9.80;95.20;;;;;;5055435;28;19917;-51
2022/04/22 03:08:55;;;;;;;;;;;9.70;95.40;;;;;;5037456;28;20394;-52
2022/04/22 03:11:21;;;;;;;;;;;9.70;95.40;;;;;;5036477;28;19917;-49
2022/04/22 03:13:49;;;;;;;;;;;9.70;95.40;;;;;;5051453;28;19920;-51
2022/04/22 03:16:16;;;;;;;;;;;9.60;95.50;;;;;;5046240;28;20425;-53
2022/04/22 03:18:41;;;;;;;;;;;9.60;95.70;;;;;;5033405;28;19925;-51
2022/04/22 03:21:08;;;;;;;;;;;9.60;95.50;;;;;;5047855;28;20358;-54
2022/04/22 03:23:33;;;;;;;;;;;9.60;95.50;;;;;;5033370;28;19917;-53
2022/04/22 03:25:59;;;;;;;;;;;9.50;95.50;;;;;;5033750;28;19924;-50
2022/04/22 03:28:24;;;;;;;;;;;9.50;95.70;;;;;;5033091;28;19924;-49
2022/04/22 03:30:50;;;;;;;;;;;9.50;95.60;;;;;;5033819;28;19956;-54
2022/04/22 03:33:17;;;;;;;;;;;9.50;95.70;;;;;;5032880;28;20075;-49
2022/04/22 03:35:43;;;;;;;;;;;9.40;95.70;;;;;;5048374;28;20387;-49
2022/04/22 03:38:11;;;;;;;;;;;9.40;95.70;;;;;;5052215;28;20396;-48
2022/04/22 03:40:36;;;;;;;;;;;9.40;95.60;;;;;;5049835;28;20363;-53
2022/04/22 03:43:03;;;;;;;;;;;9.40;95.70;;;;;;5050074;28;20013;-51
2022/04/22 03:45:29;;;;;;;;;;;9.30;95.80;;;;;;5032088;28;19917;-53
2022/04/22 03:47:59;;;;;;;;;;;9.30;95.80;;;;;;5032110;28;19917;-52
2022/04/22 03:50:28;;;;;;;;;;;9.30;95.90;;;;;;5033046;28;20106;-54
2022/04/22 03:52:54;;;;;;;;;;;9.30;95.80;;;;;;5038085;28;19916;-53
2022/04/22 03:55:20;;;;;;;;;;;9.30;96.10;;;;;;5033235;28;20381;-52
2022/04/22 04:00:29;;;;;;;;;;;9.20;95.90;;;;;;5051006;28;19916;-52
2022/04/22 04:02:55;;;;;;;;;;;9.30;95.90;;;;;;5041677;28;19917;-49
2022/04/22 04:05:20;;;;;;;;;;;9.20;95.80;;;;;;5031832;28;19917;-52
2022/04/22 04:07:46;;;;;;;;;;;9.20;96.00;;;;;;5033323;28;20409;-54
2022/04/22 04:15:58;;;;;;;;;;;9.20;95.80;;;;;;5050715;28;19952;-51
2022/04/22 04:18:34;;;;;;;;;;;9.10;95.70;;;;;;5048908;28;20197;-50
2022/04/22 04:23:44;;;;;;;;;;;9.10;95.80;;;;;;5049723;28;20023;-50
2022/04/22 04:26:11;;;;;;;;;;;9.10;95.70;;;;;;5049963;28;19917;-49
2022/04/22 04:28:36;;;;;;;;;;;9.10;95.50;;;;;;5049656;28;19972;-48
2022/04/22 04:31:02;;;;;;;;;;;9.00;95.50;;;;;;5034805;28;19964;-48
2022/04/22 04:33:29;;;;;;;;;;;9.00;95.60;;;;;;5046101;28;19923;-49
2022/04/22 04:35:54;;;;;;;;;;;9.10;95.70;;;;;;5048499;28;19924;-49
2022/04/22 04:38:20;;;;;;;;;;;9.10;95.60;;;;;;5049475;28;19925;-49
2022/04/22 04:40:46;;;;;;;;;;;9.10;95.50;;;;;;5047416;28;19966;-49
2022/04/22 04:43:12;;;;;;;;;;;9.10;95.30;;;;;;5049481;28;19917;-53
2022/04/22 04:45:37;;;;;;;;;;;9.10;95.30;;;;;;5038665;28;19917;-49
2022/04/22 04:48:03;;;;;;;;;;;9.10;95.20;;;;;;5030881;28;20392;-51
2022/04/22 04:50:29;;;;;;;;;;;9.10;95.20;;;;;;5033630;28;19994;-49
2022/04/22 04:52:54;;;;;;;;;;;9.10;94.90;;;;;;5050328;28;19924;-48
2022/04/22 04:55:20;;;;;;;;;;;9.10;94.70;;;;;;5050156;28;19916;-52
2022/04/22 04:57:46;;;;;;;;;;;9.10;94.80;;;;;;5049500;28;19974;-52
2022/04/22 05:00:11;;;;;;;;;;;9.10;94.60;;;;;;5038234;28;19917;-50
2022/04/22 05:02:37;;;;;;;;;;;9.10;94.60;;;;;;5043457;28;19923;-49
2022/04/22 05:05:06;;;;;;;;;;;9.10;94.70;;;;;;5039369;28;19957;-49
2022/04/22 05:07:32;;;;;;;;;;;9.10;94.60;;;;;;5038182;28;19956;-50
2022/04/22 05:09:58;;;;;;;;;;;9.10;94.70;;;;;;5045916;28;19975;-48
2022/04/22 05:12:23;;;;;;;;;;;9.10;94.70;;;;;;5037937;28;19917;-49
2022/04/22 05:14:49;;;;;;;;;;;9.10;94.60;;;;;;5033434;28;19921;-51
2022/04/22 05:17:14;;;;;;;;;;;9.10;94.50;;;;;;5045167;28;19920;-54
2022/04/22 05:19:40;;;;;;;;;;;9.10;94.30;;;;;;5049643;28;19996;-48
2022/04/22 05:22:05;;;;;;;;;;;9.10;94.30;;;;;;5047991;28;19932;-49
2022/04/22 05:24:31;;;;;;;;;;;9.10;94.40;;;;;;5050049;28;20003;-49
2022/04/22 05:26:57;;;;;;;;;;;9.10;94.40;;;;;;5043188;28;20348;-49
2022/04/22 05:34:50;;;;;;;;;;;9.20;94.20;;;;;;5047171;28;19923;-50
2022/04/22 05:37:16;;;;;;;;;;;9.20;94.20;;;;;;5042274;28;20298;-49
2022/04/22 05:39:43;;;;;;;;;;;9.20;94.00;;;;;;5039209;28;19917;-48
2022/04/22 05:42:09;;;;;;;;;;;9.20;94.00;;;;;;5049669;28;19921;-53
2022/04/22 05:44:34;;;;;;;;;;;9.20;93.90;;;;;;5047582;28;20370;-51
2022/04/22 05:47:00;;;;;;;;;;;9.20;93.60;;;;;;5034126;28;19917;-48
2022/04/22 05:49:27;;;;;;;;;;;9.20;93.90;;;;;;5048611;28;19917;-52
2022/04/22 05:51:53;;;;;;;;;;;9.30;94.10;;;;;;5038928;28;19917;-50
2022/04/22 05:54:19;;;;;;;;;;;9.30;94.10;;;;;;5031659;28;19971;-49
2022/04/22 05:56:44;;;;;;;;;;;9.30;93.90;;;;;;5029570;28;20086;-52
2022/04/22 05:59:10;;;;;;;;;;;9.30;94.10;;;;;;5046112;28;19924;-50
2022/04/22 06:01:35;;;;;;;;;;;9.40;94.30;;;;;;5045923;28;19917;-51
2022/04/22 06:04:00;;;;;;;;;;;9.50;93.30;;;;;;5048750;28;19917;-50
2022/04/22 06:06:26;;;;;;;;;;;9.60;93.60;;;;;;5047186;28;19921;-52
2022/04/22 06:11:35;;;;;;;;;;;9.80;93.30;;;;;;5030429;28;19917;-51
2022/04/22 06:14:01;;;;;;;;;;;9.90;92.40;;;;;;5030342;28;20264;-48
2022/04/22 06:16:27;;;;;;;;;;;10.00;92.20;;;;;;5029091;28;19921;-52
2022/04/22 06:18:53;;;;;;;;;;;10.10;92.20;;;;;;5042778;28;20352;-52
2022/04/22 06:21:18;;;;;;;;;;;10.20;92.10;;;;;;5043437;28;19917;-50
2022/04/22 06:23:44;;;;;;;;;;;10.20;91.50;;;;;;5045909;28;20306;-52
2022/04/22 06:26:09;;;;;;;;;;;10.20;91.50;;;;;;5046942;28;20032;-50
2022/04/22 06:28:35;;;;;;;;;;;10.30;91.50;;;;;;5037780;28;19971;-49
2022/04/22 06:31:00;;;;;;;;;;;10.50;91.70;;;;;;5045657;28;19916;-48
2022/04/22 06:33:26;;;;;;;;;;;10.60;91.70;;;;;;5041413;28;20044;-49
2022/04/22 06:35:51;;;;;;;;;;;10.70;91.60;;;;;;5028768;28;19921;-49
2022/04/22 06:38:18;;;;;;;;;;;10.80;91.50;;;;;;5040831;28;19921;-54
2022/04/22 06:46:16;;;;;;;;;;;10.90;90.60;;;;;;5049512;28;19917;-50
2022/04/22 06:48:43;;;;;;;;;;;10.90;90.50;;;;;;5036729;28;19924;-50
2022/04/22 06:51:09;;;;;;;;;;;11.00;91.10;;;;;;5053881;28;20285;-52
2022/04/22 06:53:35;;;;;;;;;;;11.00;90.90;;;;;;5049351;28;20290;-50
2022/04/22 06:56:02;;;;;;;;;;;11.00;90.60;;;;;;5034233;28;19923;-50
2022/04/22 06:58:30;;;;;;;;;;;11.10;90.30;;;;;;5048993;28;19924;-50
2022/04/22 07:00:55;;;;;;;;;;;11.10;90.40;;;;;;5039150;28;19917;-49
2022/04/22 07:03:21;;;;;;;;;;;11.00;90.30;;;;;;5033210;28;19923;-48
2022/04/22 07:05:48;;;;;;;;;;;11.10;90.30;;;;;;5045009;28;20019;-51
2022/04/22 07:08:14;;;;;;;;;;;11.10;90.70;;;;;;5040247;28;20011;-49
2022/04/22 07:10:41;;;;;;;;;;;11.10;90.30;;;;;;5033305;28;20001;-53
2022/04/22 07:13:07;;;;;;;;;;;11.20;90.40;;;;;;5040945;28;19921;-49
2022/04/22 07:15:32;;;;;;;;;;;11.20;90.40;;;;;;5049682;28;19939;-49
2022/04/22 07:17:58;;;;;;;;;;;11.30;90.40;;;;;;5037297;28;19983;-49
2022/04/22 07:20:23;;;;;;;;;;;11.30;90.50;;;;;;5038224;28;19922;-50
2022/04/22 07:22:49;;;;;;;;;;;11.50;90.70;;;;;;5052578;28;19999;-49
2022/04/22 07:25:15;;;;;;;;;;;11.60;90.30;;;;;;5051929;28;19916;-50
2022/04/22 07:27:42;;;;;;;;;;;11.70;90.00;;;;;;5033547;28;19916;-49
2022/04/22 07:30:09;;;;;;;;;;;11.80;89.70;;;;;;5043257;28;19960;-50
2022/04/22 07:32:37;;;;;;;;;;;11.80;88.50;;;;;;5033016;28;19942;-50
2022/04/22 07:35:04;;;;;;;;;;;11.90;87.40;;;;;;5033276;28;19943;-53
2022/04/22 07:37:29;;;;;;;;;;;11.90;88.50;;;;;;5033671;28;19983;-50
2022/04/22 07:39:55;;;;;;;;;;;12.00;86.70;;;;;;5045562;28;19964;-50
2022/04/22 07:42:21;;;;;;;;;;;12.00;87.10;;;;;;5051485;28;19917;-50
2022/04/22 07:47:33;;;;;;;;;;;12.20;87.70;;;;;;5040710;28;20364;-51
2022/04/22 07:49:58;;;;;;;;;;;12.30;87.40;;;;;;5047458;28;19917;-51
2022/04/22 07:52:24;;;;;;;;;;;12.40;87.40;;;;;;5049526;28;20140;-52
2022/04/22 07:54:49;;;;;;;;;;;12.50;86.90;;;;;;5031846;28;19975;-49
2022/04/22 07:57:15;;;;;;;;;;;12.50;87.20;;;;;;5033722;28;19921;-51
2022/04/22 07:59:41;;;;;;;;;;;12.60;87.20;;;;;;5040908;28;19920;-49
2022/04/22 08:02:06;;;;;;;;;;;12.70;85.90;;;;;;5044419;28;19920;-51
2022/04/22 08:04:32;;;;;;;;;;;12.70;85.60;;;;;;5042791;28;20413;-52
2022/04/22 08:06:57;;;;;;;;;;;12.80;85.10;;;;;;5031910;28;19928;-54
2022/04/22 08:09:23;;;;;;;;;;;12.80;85.20;;;;;;5038437;28;20009;-50
2022/04/22 08:11:48;;;;;;;;;;;12.80;84.60;;;;;;5052462;28;19917;-49
2022/04/22 08:14:14;;;;;;;;;;;12.90;84.30;;;;;;5046517;28;20325;-51
2022/04/22 08:16:39;;;;;;;;;;;13.00;84.20;;;;;;5047693;28;19917;-49
2022/04/22 08:19:05;;;;;;;;;;;13.00;83.30;;;;;;5049188;28;19929;-51
2022/04/22 08:21:33;;;;;;;;;;;13.00;84.40;;;;;;5032145;28;19917;-50
2022/04/22 08:24:02;;;;;;;;;;;13.10;84.50;;;;;;5031446;28;19920;-53
2022/04/22 08:26:31;;;;;;;;;;;13.20;83.90;;;;;;5038436;28;19939;-51
2022/04/22 08:28:56;;;;;;;;;;;13.30;82.70;;;;;;5037154;28;20007;-52
2022/04/22 08:31:22;;;;;;;;;;;13.40;83.20;;;;;;5034023;28;20007;-50
2022/04/22 08:33:48;;;;;;;;;;;13.50;83.20;;;;;;5031772;28;20305;-51
2022/04/22 08:36:14;;;;;;;;;;;13.60;82.60;;;;;;5030705;28;19975;-50
2022/04/22 08:38:40;;;;;;;;;;;13.60;82.10;;;;;;5049650;28;19921;-50
2022/04/22 08:41:07;;;;;;;;;;;13.70;83.70;;;;;;5040434;28;19917;-49
2022/04/22 08:43:33;;;;;;;;;;;13.80;81.50;;;;;;5031492;28;19924;-50
2022/04/22 08:45:58;;;;;;;;;;;13.90;81.80;;;;;;5039710;28;20096;-50
2022/04/22 08:51:09;;;;;;;;;;;14.10;81.40;;;;;;5049829;28;19921;-51
2022/04/22 08:53:36;;;;;;;;;;;14.20;81.60;;;;;;5049430;28;20189;-51
2022/04/22 08:56:02;;;;;;;;;;;14.30;80.30;;;;;;5030894;28;19933;-50
2022/04/22 08:58:29;;;;;;;;;;;14.30;79.50;;;;;;5030880;28;19928;-51
2022/04/22 09:00:55;;;;;;;;;;;14.40;80.90;;;;;;5033144;28;20004;-50
2022/04/22 09:03:20;;;;;;;;;;;14.50;80.20;;;;;;5030684;28;19928;-52
2022/04/22 09:05:46;;;;;;;;;;;14.60;78.60;;;;;;5050463;28;19920;-52
2022/04/22 09:08:12;;;;;;;;;;;14.70;77.70;;;;;;5048166;28;20302;-50
2022/04/22 09:10:38;;;;;;;;;;;14.70;77.00;;;;;;5063119;28;19917;-50
2022/04/22 09:13:09;;;;;;;;;;;14.80;77.30;;;;;;5030941;28;19924;-51
2022/04/22 09:15:35;;;;;;;;;;;14.90;76.20;;;;;;5031587;28;20405;-50
2022/04/22 09:18:12;;;;;;;;;;;14.90;76.70;;;;;;5050601;28;19924;-49
2022/04/22 09:20:38;;;;;;;;;;;15.00;77.10;;;;;;5047993;28;20392;-52
2022/04/22 09:23:20;;;;;;;;;;;15.00;75.20;;;;;;5050426;28;19917;-51
2022/04/22 09:25:46;;;;;;;;;;;15.10;76.70;;;;;;5048147;28;20427;-51
2022/04/22 09:28:11;;;;;;;;;;;15.20;77.70;;;;;;5030091;28;19920;-52
2022/04/22 09:30:37;;;;;;;;;;;15.30;76.60;;;;;;5040750;28;19939;-50
2022/04/22 09:33:02;;;;;;;;;;;15.40;75.40;;;;;;5034657;28;19917;-50
2022/04/22 09:35:29;;;;;;;;;;;15.50;75.10;;;;;;5037792;28;19917;-52
2022/04/22 09:43:24;;;;;;;;;;;15.60;74.70;;;;;;5042693;28;19924;-50
2022/04/22 09:45:53;;;;;;;;;;;15.60;74.80;;;;;;5030039;28;19917;-50
2022/04/22 09:48:19;;;;;;;;;;;15.60;74.50;;;;;;5032031;28;20377;-50
2022/04/22 09:50:46;;;;;;;;;;;15.70;74.00;;;;;;5048825;28;19964;-49
2022/04/22 09:53:13;;;;;;;;;;;15.80;75.30;;;;;;5061227;28;19917;-50
2022/04/22 09:55:49;;;;;;;;;;;15.80;75.80;;;;;;5029932;28;20020;-50
2022/04/22 09:58:40;;;;;;;;;;;15.90;74.20;;;;;;5037647;28;19940;-52
2022/04/22 10:01:06;;;;;;;;;;;16.00;73.60;;;;;;5043072;28;20012;-52
2022/04/22 10:03:33;;;;;;;;;;;16.00;73.40;;;;;;5035625;28;19932;-52
2022/04/22 10:05:58;;;;;;;;;;;16.10;74.30;;;;;;5041328;28;19924;-49
2022/04/22 10:08:25;;;;;;;;;;;16.20;73.20;;;;;;5045204;28;19924;-50
2022/04/22 10:10:52;;;;;;;;;;;16.20;72.40;;;;;;5031452;28;19917;-51
2022/04/22 10:13:18;;;;;;;;;;;16.20;71.50;;;;;;5035919;28;19923;-50
2022/04/22 10:15:47;;;;;;;;;;;16.20;69.90;;;;;;5049870;28;20014;-50
2022/04/22 10:18:13;;;;;;;;;;;16.20;71.90;;;;;;5043213;28;19929;-51
2022/04/22 10:20:39;;;;;;;;;;;16.30;71.50;;;;;;5035257;28;19916;-50
2022/04/22 10:23:05;;;;;;;;;;;16.40;72.10;;;;;;5035147;28;19931;-49
2022/04/22 10:25:31;;;;;;;;;;;16.50;72.30;;;;;;5052954;28;20011;-50
2022/04/22 10:27:57;;;;;;;;;;;16.60;72.20;;;;;;5038843;28;20382;-50
2022/04/22 10:30:24;;;;;;;;;;;16.60;70.20;;;;;;5034341;28;19917;-50
2022/04/22 10:32:49;;;;;;;;;;;16.60;71.40;;;;;;5047778;28;19917;-50
2022/04/22 10:35:15;;;;;;;;;;;16.60;69.90;;;;;;5037730;28;19939;-51
2022/04/22 10:37:44;;;;;;;;;;;16.60;69.90;;;;;;5033894;28;19966;-50
2022/04/22 10:40:19;;;;;;;;;;;16.70;70.90;;;;;;5045599;28;20023;-50
2022/04/22 10:42:45;;;;;;;;;;;16.70;70.80;;;;;;5053735;28;19939;-50
2022/04/22 10:47:55;;;;;;;;;;;16.70;69.40;;;;;;5058151;28;19916;-50
2022/04/22 10:50:26;;;;;;;;;;;16.80;68.90;;;;;;5050517;28;19917;-50
2022/04/22 10:53:03;;;;;;;;;;;16.90;70.40;;;;;;5033364;28;19952;-50
2022/04/22 10:55:32;;;;;;;;;;;17.00;69.50;;;;;;5050383;28;19932;-51
2022/04/22 10:58:13;;;;;;;;;;;17.00;68.10;;;;;;5052024;28;19921;-50
2022/04/22 11:00:45;;;;;;;;;;;17.00;68.60;;;;;;5050849;28;19916;-53
2022/04/22 11:03:15;;;;;;;;;;;17.00;66.90;;;;;;5043532;28;19924;-53
2022/04/22 11:05:50;;;;;;;;;;;17.10;69.50;;;;;;5034499;28;20436;-50
2022/04/22 11:08:20;;;;;;;;;;;17.20;69.50;;;;;;5039397;28;20003;-51
2022/04/22 11:10:45;;;;;;;;;;;17.30;68.90;;;;;;5049290;28;19917;-50
2022/04/22 11:13:29;;;;;;;;;;;17.40;67.00;;;;;;5037142;28;19962;-52
2022/04/22 11:15:59;;;;;;;;;;;17.40;66.30;;;;;;5048650;28;19997;-51
2022/04/22 11:18:25;;;;;;;;;;;17.50;68.60;;;;;;5038523;28;19920;-51
2022/04/22 11:20:52;;;;;;;;;;;17.50;68.40;;;;;;5040141;28;19921;-54
2022/04/22 11:23:18;;;;;;;;;;;17.70;67.00;;;;;;5035728;28;19921;-51
2022/04/22 11:25:44;;;;;;;;;;;17.70;67.40;;;;;;5039900;28;19916;-52
2022/04/22 11:28:10;;;;;;;;;;;17.80;67.70;;;;;;5048627;28;20279;-52
2022/04/22 11:30:36;;;;;;;;;;;17.90;67.50;;;;;;5032204;28;20436;-51
2022/04/22 11:33:21;;;;;;;;;;;18.00;68.20;;;;;;5033269;28;19917;-50
2022/04/22 11:35:56;;;;;;;;;;;18.10;66.40;;;;;;5034667;28;20356;-52
2022/04/22 11:38:22;;;;;;;;;;;18.10;67.70;;;;;;5047929;28;19950;-51
2022/04/22 11:40:49;;;;;;;;;;;18.20;67.10;;;;;;5051326;28;20385;-51
2022/04/22 11:43:15;;;;;;;;;;;18.20;65.70;;;;;;5029851;28;20023;-51
2022/04/22 11:45:42;;;;;;;;;;;18.20;67.40;;;;;;5042158;28;19971;-51
2022/04/22 11:48:08;;;;;;;;;;;18.30;66.10;;;;;;5045204;28;20333;-53
2022/04/22 11:50:40;;;;;;;;;;;18.40;67.80;;;;;;5042214;28;20027;-51
2022/04/22 11:53:14;;;;;;;;;;;18.50;66.60;;;;;;5050316;28;19997;-51
2022/04/22 11:55:43;;;;;;;;;;;18.50;65.80;;;;;;5037607;28;20020;-51
2022/04/22 11:58:12;;;;;;;;;;;18.50;65.20;;;;;;5031347;28;19932;-52
2022/04/22 12:06:21;;;;;;;;;;;18.40;64.30;;;;;;5036664;28;19924;-53
2022/04/22 12:08:53;;;;;;;;;;;18.40;66.10;;;;;;5047751;28;19921;-50
2022/04/22 12:11:19;;;;;;;;;;;18.40;66.40;;;;;;5048880;28;19916;-51
2022/04/22 12:13:46;;;;;;;;;;;18.30;64.30;;;;;;5043567;28;19928;-53
2022/04/22 12:16:11;;;;;;;;;;;18.10;64.00;;;;;;5045176;28;20011;-51
2022/04/22 12:18:37;;;;;;;;;;;18.10;65.20;;;;;;5037091;28;20027;-53
2022/04/22 12:21:06;;;;;;;;;;;18.10;64.40;;;;;;5033536;28;20047;-51
2022/04/22 12:23:39;;;;;;;;;;;18.10;64.30;;;;;;5020108;28;20007;-50
2022/04/22 12:26:05;;;;;;;;;;;18.00;64.20;;;;;;5040283;28;19924;-52
2022/04/22 12:28:31;;;;;;;;;;;18.10;66.10;;;;;;5031109;28;20283;-51
2022/04/22 12:30:57;;;;;;;;;;;18.30;66.00;;;;;;5033964;28;20141;-51
2022/04/22 12:33:23;;;;;;;;;;;18.40;64.40;;;;;;5048052;28;19917;-53
2022/04/22 12:35:49;;;;;;;;;;;18.50;64.20;;;;;;5047697;28;20243;-54
2022/04/22 12:38:16;;;;;;;;;;;18.60;65.70;;;;;;5044392;28;19920;-50
2022/04/22 12:40:48;;;;;;;;;;;18.60;64.10;;;;;;5037864;28;20000;-52
2022/04/22 12:43:27;;;;;;;;;;;18.70;63.80;;;;;;5044372;28;19959;-50
2022/04/22 12:54:09;;;;;;;;;;;19.00;62.80;;;;;;5036224;28;19917;-51
2022/04/22 12:56:35;;;;;;;;;;;19.00;64.20;;;;;;5040531;28;19921;-52
2022/04/22 12:59:02;;;;;;;;;;;18.90;62.40;;;;;;5038167;28;19921;-50
2022/04/22 13:01:39;;;;;;;;;;;19.00;64.80;;;;;;5044615;28;19917;-51
2022/04/22 13:04:05;;;;;;;;;;;19.00;64.10;;;;;;5030861;28;20275;-50
2022/04/22 13:06:40;;;;;;;;;;;19.00;63.70;;;;;;5042755;28;19917;-50
2022/04/22 13:09:06;;;;;;;;;;;18.90;63.20;;;;;;5031119;28;20008;-50
2022/04/22 13:11:32;;;;;;;;;;;18.80;63.00;;;;;;5030340;28;19924;-50
2022/04/22 13:13:58;;;;;;;;;;;18.60;63.00;;;;;;5030984;28;20377;-50
2022/04/22 13:16:23;;;;;;;;;;;18.50;64.10;;;;;;5028019;28;19917;-52
2022/04/22 13:18:49;;;;;;;;;;;18.40;64.00;;;;;;5028156;28;19986;-51
2022/04/22 13:21:14;;;;;;;;;;;18.30;64.40;;;;;;5030813;28;19968;-51
2022/04/22 13:23:40;;;;;;;;;;;18.20;64.00;;;;;;5034338;28;19921;-51
2022/04/22 13:26:05;;;;;;;;;;;18.30;65.90;;;;;;5035270;28;19985;-50
2022/04/22 13:28:31;;;;;;;;;;;18.40;66.30;;;;;;5048727;28;20320;-53
2022/04/22 13:30:56;;;;;;;;;;;18.50;64.30;;;;;;5046322;28;20347;-50
2022/04/22 13:33:22;;;;;;;;;;;18.50;65.30;;;;;;5040560;28;20382;-53
2022/04/22 13:35:47;;;;;;;;;;;18.60;65.30;;;;;;5030939;28;19917;-51
2022/04/22 13:38:13;;;;;;;;;;;18.60;64.90;;;;;;5029855;28;20413;-52
2022/04/22 13:40:38;;;;;;;;;;;18.40;63.90;;;;;;5035840;28;19920;-50
2022/04/22 13:43:04;;;;;;;;;;;18.20;63.50;;;;;;5049486;28;19948;-51
2022/04/22 13:53:42;;;;;;;;;;;17.90;66.30;;;;;;5031161;28;19916;-51
2022/04/22 13:56:07;;;;;;;;;;;18.10;66.30;;;;;;5042798;28;19917;-51
2022/04/22 13:58:36;;;;;;;;;;;18.20;65.90;;;;;;5038511;28;19920;-50
2022/04/22 14:01:03;;;;;;;;;;;18.30;65.70;;;;;;5046880;28;19917;-53
2022/04/22 14:03:29;;;;;;;;;;;18.30;65.80;;;;;;5028910;28;19923;-51
2022/04/22 14:05:54;;;;;;;;;;;18.30;64.50;;;;;;5041962;28;19985;-52
2022/04/22 14:08:20;;;;;;;;;;;18.20;65.00;;;;;;5045735;28;19975;-51
2022/04/22 14:10:46;;;;;;;;;;;18.20;65.30;;;;;;5030473;28;19923;-53
2022/04/22 14:13:13;;;;;;;;;;;18.20;64.60;;;;;;5043949;28;20361;-51
2022/04/22 14:15:39;;;;;;;;;;;18.20;65.60;;;;;;5047103;28;19916;-50
2022/04/22 14:18:05;;;;;;;;;;;18.20;65.10;;;;;;5050294;28;19925;-50
2022/04/22 14:20:30;;;;;;;;;;;18.20;63.80;;;;;;5040690;28;19924;-51
2022/04/22 14:22:56;;;;;;;;;;;18.00;64.20;;;;;;5029824;28;19921;-50
2022/04/22 14:25:21;;;;;;;;;;;18.00;64.90;;;;;;5036238;28;20370;-50
2022/04/22 14:27:47;;;;;;;;;;;18.10;66.50;;;;;;5049689;28;20301;-51
2022/04/22 14:30:12;;;;;;;;;;;18.20;65.30;;;;;;5047350;28;19917;-49
2022/04/22 14:32:38;;;;;;;;;;;18.30;65.90;;;;;;5048354;28;19923;-50
2022/04/22 14:35:04;;;;;;;;;;;18.40;65.40;;;;;;5048611;28;19916;-52
2022/04/22 14:37:29;;;;;;;;;;;18.40;65.10;;;;;;5048466;28;19920;-52
2022/04/22 14:39:57;;;;;;;;;;;18.40;66.10;;;;;;5031991;28;19924;-55
2022/04/22 14:42:23;;;;;;;;;;;18.50;65.40;;;;;;5040896;28;20387;-53
2022/04/22 14:44:48;;;;;;;;;;;18.50;66.60;;;;;;5048837;28;20291;-51
2022/04/22 14:47:14;;;;;;;;;;;18.60;65.70;;;;;;5049721;28;20058;-52
2022/04/22 14:49:40;;;;;;;;;;;18.70;65.60;;;;;;5046354;28;20381;-54
2022/04/22 14:52:06;;;;;;;;;;;18.70;64.50;;;;;;5048288;28;19917;-55
2022/04/22 14:54:32;;;;;;;;;;;18.70;65.10;;;;;;5042361;28;19923;-53
2022/04/22 14:56:57;;;;;;;;;;;18.70;63.90;;;;;;5047656;28;20007;-51
2022/04/22 14:59:23;;;;;;;;;;;18.60;63.70;;;;;;5046789;28;19921;-52
2022/04/22 15:01:49;;;;;;;;;;;18.40;63.60;;;;;;5047092;28;19960;-51
2022/04/22 15:04:14;;;;;;;;;;;18.30;64.40;;;;;;5048344;28;20358;-51
2022/04/22 15:06:40;;;;;;;;;;;18.30;64.60;;;;;;5046381;28;19917;-54
2022/04/22 15:09:05;;;;;;;;;;;18.30;64.30;;;;;;5048592;28;19923;-51
2022/04/22 15:11:31;;;;;;;;;;;18.40;64.80;;;;;;5049625;28;19920;-55
2022/04/22 15:13:59;;;;;;;;;;;18.40;64.20;;;;;;5052811;28;19962;-52
2022/04/22 15:16:27;;;;;;;;;;;18.50;65.10;;;;;;5037304;28;19925;-52
2022/04/22 15:24:21;;;;;;;;;;;18.20;63.50;;;;;;5041522;28;19917;-54
2022/04/22 15:26:47;;;;;;;;;;;18.10;63.50;;;;;;5051430;28;19920;-53
2022/04/22 15:29:13;;;;;;;;;;;18.00;63.80;;;;;;5052345;28;19917;-56
2022/04/22 15:31:41;;;;;;;;;;;17.90;63.70;;;;;;5053154;28;19952;-56
2022/04/22 15:34:07;;;;;;;;;;;17.80;63.80;;;;;;5047824;28;19916;-53
2022/04/22 15:36:32;;;;;;;;;;;17.70;64.80;;;;;;5032797;28;20412;-53